sensor_id;sensor_type;location;lat;lon;timestamp;P1;durP1;ratioP1;P2;durP2;ratioP2
50301;SDS011;36550;50.472;19.744;2024-02-26T00:01:20;98.60;;;36.00;;
50301;SDS011;36550;50.472;19.744;2024-02-26T00:04:05;87.50;;;34.80;;
50301;SDS011;36550;50.472;19.744;2024-02-26T00:06:49;91.80;;;36.80;;
50301;SDS011;36550;50.472;19.744;2024-02-26T00:09:35;92.50;;;36.80;;
50301;SDS011;36550;50.472;19.744;2024-02-26T00:12:21;99.20;;;38.50;;
50301;SDS011;36550;50.472;19.744;2024-02-26T00:15:06;97.20;;;38.40;;
50301;SDS011;36550;50.472;19.744;2024-02-26T00:17:51;97.10;;;37.40;;
50301;SDS011;36550;50.472;19.744;2024-02-26T00:20:35;98.20;;;42.50;;
50301;SDS011;36550;50.472;19.744;2024-02-26T00:23:20;136.00;;;60.80;;
50301;SDS011;36550;50.472;19.744;2024-02-26T00:26:03;148.90;;;67.40;;
50301;SDS011;36550;50.472;19.744;2024-02-26T00:28:48;95.50;;;39.40;;
50301;SDS011;36550;50.472;19.744;2024-02-26T00:31:32;81.20;;;32.80;;
50301;SDS011;36550;50.472;19.744;2024-02-26T00:34:17;82.00;;;32.30;;
50301;SDS011;36550;50.472;19.744;2024-02-26T00:37:01;69.20;;;28.50;;
50301;SDS011;36550;50.472;19.744;2024-02-26T00:39:45;81.30;;;28.50;;
50301;SDS011;36550;50.472;19.744;2024-02-26T00:42:30;72.00;;;29.60;;
50301;SDS011;36550;50.472;19.744;2024-02-26T00:45:14;72.50;;;29.10;;
50301;SDS011;36550;50.472;19.744;2024-02-26T00:48:00;64.90;;;27.40;;
50301;SDS011;36550;50.472;19.744;2024-02-26T00:50:48;67.10;;;27.30;;
50301;SDS011;36550;50.472;19.744;2024-02-26T00:53:32;64.20;;;26.60;;
50301;SDS011;36550;50.472;19.744;2024-02-26T00:56:17;69.30;;;26.80;;
50301;SDS011;36550;50.472;19.744;2024-02-26T00:59:01;79.10;;;33.70;;
50301;SDS011;36550;50.472;19.744;2024-02-26T01:01:46;74.00;;;31.90;;
50301;SDS011;36550;50.472;19.744;2024-02-26T01:04:30;75.40;;;32.60;;
50301;SDS011;36550;50.472;19.744;2024-02-26T01:07:14;76.70;;;33.00;;
50301;SDS011;36550;50.472;19.744;2024-02-26T01:09:59;78.10;;;34.20;;
50301;SDS011;36550;50.472;19.744;2024-02-26T01:12:43;71.00;;;30.00;;
50301;SDS011;36550;50.472;19.744;2024-02-26T01:15:27;66.60;;;29.20;;
50301;SDS011;36550;50.472;19.744;2024-02-26T01:18:12;71.70;;;31.50;;
50301;SDS011;36550;50.472;19.744;2024-02-26T01:20:56;79.30;;;34.20;;
50301;SDS011;36550;50.472;19.744;2024-02-26T01:23:40;85.70;;;33.90;;
50301;SDS011;36550;50.472;19.744;2024-02-26T01:26:24;71.40;;;29.20;;
50301;SDS011;36550;50.472;19.744;2024-02-26T01:29:08;81.10;;;33.30;;
50301;SDS011;36550;50.472;19.744;2024-02-26T01:31:52;80.50;;;32.90;;
50301;SDS011;36550;50.472;19.744;2024-02-26T01:34:37;83.00;;;32.80;;
50301;SDS011;36550;50.472;19.744;2024-02-26T01:37:21;76.00;;;30.50;;
50301;SDS011;36550;50.472;19.744;2024-02-26T01:40:05;73.00;;;28.00;;
50301;SDS011;36550;50.472;19.744;2024-02-26T01:42:52;68.30;;;27.90;;
50301;SDS011;36550;50.472;19.744;2024-02-26T01:45:36;73.20;;;28.00;;
50301;SDS011;36550;50.472;19.744;2024-02-26T01:48:21;72.20;;;28.20;;
50301;SDS011;36550;50.472;19.744;2024-02-26T01:51:05;65.20;;;27.00;;
50301;SDS011;36550;50.472;19.744;2024-02-26T01:53:49;74.90;;;30.50;;
50301;SDS011;36550;50.472;19.744;2024-02-26T01:56:33;71.40;;;30.20;;
50301;SDS011;36550;50.472;19.744;2024-02-26T01:59:20;79.00;;;33.20;;
50301;SDS011;36550;50.472;19.744;2024-02-26T02:02:05;80.10;;;32.20;;
50301;SDS011;36550;50.472;19.744;2024-02-26T02:04:52;78.90;;;33.50;;
50301;SDS011;36550;50.472;19.744;2024-02-26T02:07:37;92.40;;;37.40;;
50301;SDS011;36550;50.472;19.744;2024-02-26T02:10:21;84.30;;;36.10;;
50301;SDS011;36550;50.472;19.744;2024-02-26T02:13:08;74.10;;;28.50;;
50301;SDS011;36550;50.472;19.744;2024-02-26T02:15:52;69.10;;;28.70;;
50301;SDS011;36550;50.472;19.744;2024-02-26T02:18:36;71.50;;;29.10;;
50301;SDS011;36550;50.472;19.744;2024-02-26T02:21:21;70.30;;;29.10;;
50301;SDS011;36550;50.472;19.744;2024-02-26T02:24:05;68.80;;;27.50;;
50301;SDS011;36550;50.472;19.744;2024-02-26T02:26:49;67.20;;;27.20;;
50301;SDS011;36550;50.472;19.744;2024-02-26T02:29:33;65.00;;;26.40;;
50301;SDS011;36550;50.472;19.744;2024-02-26T02:32:17;69.00;;;28.10;;
50301;SDS011;36550;50.472;19.744;2024-02-26T02:35:03;242.00;;;60.70;;
50301;SDS011;36550;50.472;19.744;2024-02-26T02:37:48;187.40;;;50.70;;
50301;SDS011;36550;50.472;19.744;2024-02-26T02:40:32;148.40;;;46.20;;
50301;SDS011;36550;50.472;19.744;2024-02-26T02:43:16;142.20;;;44.80;;
50301;SDS011;36550;50.472;19.744;2024-02-26T02:46:00;96.80;;;35.60;;
50301;SDS011;36550;50.472;19.744;2024-02-26T02:48:45;101.80;;;32.50;;
50301;SDS011;36550;50.472;19.744;2024-02-26T02:51:29;81.30;;;27.60;;
50301;SDS011;36550;50.472;19.744;2024-02-26T02:54:13;87.00;;;30.50;;
50301;SDS011;36550;50.472;19.744;2024-02-26T02:56:57;61.80;;;23.40;;
50301;SDS011;36550;50.472;19.744;2024-02-26T02:59:42;61.60;;;23.80;;
50301;SDS011;36550;50.472;19.744;2024-02-26T03:02:27;54.00;;;23.00;;
50301;SDS011;36550;50.472;19.744;2024-02-26T03:05:11;57.20;;;22.20;;
50301;SDS011;36550;50.472;19.744;2024-02-26T03:07:55;64.70;;;23.20;;
50301;SDS011;36550;50.472;19.744;2024-02-26T03:10:40;69.80;;;25.10;;
50301;SDS011;36550;50.472;19.744;2024-02-26T03:13:24;72.40;;;25.10;;
50301;SDS011;36550;50.472;19.744;2024-02-26T03:16:08;60.40;;;23.80;;
50301;SDS011;36550;50.472;19.744;2024-02-26T03:18:53;54.20;;;23.40;;
50301;SDS011;36550;50.472;19.744;2024-02-26T03:21:37;56.30;;;23.90;;
50301;SDS011;36550;50.472;19.744;2024-02-26T03:24:21;60.80;;;23.30;;
50301;SDS011;36550;50.472;19.744;2024-02-26T03:27:05;51.60;;;22.90;;
50301;SDS011;36550;50.472;19.744;2024-02-26T03:29:53;63.00;;;23.90;;
50301;SDS011;36550;50.472;19.744;2024-02-26T03:32:37;60.60;;;23.90;;
50301;SDS011;36550;50.472;19.744;2024-02-26T03:35:21;58.30;;;22.50;;
50301;SDS011;36550;50.472;19.744;2024-02-26T03:38:06;55.60;;;22.50;;
50301;SDS011;36550;50.472;19.744;2024-02-26T03:40:49;69.10;;;26.20;;
50301;SDS011;36550;50.472;19.744;2024-02-26T03:43:33;79.90;;;27.70;;
50301;SDS011;36550;50.472;19.744;2024-02-26T03:46:18;72.10;;;28.60;;
50301;SDS011;36550;50.472;19.744;2024-02-26T03:49:02;50.70;;;21.50;;
50301;SDS011;36550;50.472;19.744;2024-02-26T03:51:46;52.20;;;20.90;;
50301;SDS011;36550;50.472;19.744;2024-02-26T03:54:30;46.20;;;20.70;;
50301;SDS011;36550;50.472;19.744;2024-02-26T03:57:15;54.50;;;21.90;;
50301;SDS011;36550;50.472;19.744;2024-02-26T03:59:59;53.00;;;21.70;;
50301;SDS011;36550;50.472;19.744;2024-02-26T04:02:43;56.90;;;24.20;;
50301;SDS011;36550;50.472;19.744;2024-02-26T04:05:28;53.60;;;23.30;;
50301;SDS011;36550;50.472;19.744;2024-02-26T04:08:12;54.00;;;23.40;;
50301;SDS011;36550;50.472;19.744;2024-02-26T04:10:56;55.80;;;25.10;;
50301;SDS011;36550;50.472;19.744;2024-02-26T04:13:40;57.20;;;25.50;;
50301;SDS011;36550;50.472;19.744;2024-02-26T04:16:24;71.30;;;28.40;;
50301;SDS011;36550;50.472;19.744;2024-02-26T04:19:09;90.50;;;33.60;;
50301;SDS011;36550;50.472;19.744;2024-02-26T04:21:54;76.10;;;28.70;;
50301;SDS011;36550;50.472;19.744;2024-02-26T04:24:38;58.50;;;25.30;;
50301;SDS011;36550;50.472;19.744;2024-02-26T04:27:22;53.00;;;23.20;;
50301;SDS011;36550;50.472;19.744;2024-02-26T04:30:06;59.00;;;23.40;;
50301;SDS011;36550;50.472;19.744;2024-02-26T04:32:51;58.20;;;27.30;;
50301;SDS011;36550;50.472;19.744;2024-02-26T04:35:35;51.40;;;22.10;;
50301;SDS011;36550;50.472;19.744;2024-02-26T04:38:19;49.30;;;21.20;;
50301;SDS011;36550;50.472;19.744;2024-02-26T04:41:03;44.00;;;19.70;;
50301;SDS011;36550;50.472;19.744;2024-02-26T04:43:48;42.50;;;19.10;;
50301;SDS011;36550;50.472;19.744;2024-02-26T04:46:32;53.00;;;22.70;;
50301;SDS011;36550;50.472;19.744;2024-02-26T04:49:16;47.80;;;20.90;;
50301;SDS011;36550;50.472;19.744;2024-02-26T04:52:00;51.80;;;22.60;;
50301;SDS011;36550;50.472;19.744;2024-02-26T04:54:45;59.10;;;23.20;;
50301;SDS011;36550;50.472;19.744;2024-02-26T04:57:29;62.30;;;23.40;;
50301;SDS011;36550;50.472;19.744;2024-02-26T05:00:13;63.20;;;25.30;;
50301;SDS011;36550;50.472;19.744;2024-02-26T05:02:58;56.70;;;23.20;;
50301;SDS011;36550;50.472;19.744;2024-02-26T05:05:43;57.20;;;23.10;;
50301;SDS011;36550;50.472;19.744;2024-02-26T05:08:27;59.40;;;24.70;;
50301;SDS011;36550;50.472;19.744;2024-02-26T05:11:12;70.00;;;26.60;;
50301;SDS011;36550;50.472;19.744;2024-02-26T05:13:56;64.00;;;24.20;;
50301;SDS011;36550;50.472;19.744;2024-02-26T05:16:41;59.60;;;22.80;;
50301;SDS011;36550;50.472;19.744;2024-02-26T05:19:25;55.80;;;21.50;;
50301;SDS011;36550;50.472;19.744;2024-02-26T05:22:09;56.20;;;23.40;;
50301;SDS011;36550;50.472;19.744;2024-02-26T05:24:53;64.80;;;24.70;;
50301;SDS011;36550;50.472;19.744;2024-02-26T05:27:37;63.20;;;24.80;;
50301;SDS011;36550;50.472;19.744;2024-02-26T05:30:21;61.50;;;25.00;;
50301;SDS011;36550;50.472;19.744;2024-02-26T05:33:06;62.10;;;24.60;;
50301;SDS011;36550;50.472;19.744;2024-02-26T05:35:50;133.00;;;45.70;;
50301;SDS011;36550;50.472;19.744;2024-02-26T05:38:34;155.20;;;59.40;;
50301;SDS011;36550;50.472;19.744;2024-02-26T05:41:18;86.90;;;35.20;;
50301;SDS011;36550;50.472;19.744;2024-02-26T05:44:06;71.60;;;26.60;;
50301;SDS011;36550;50.472;19.744;2024-02-26T05:46:53;50.30;;;21.20;;
50301;SDS011;36550;50.472;19.744;2024-02-26T05:49:37;54.40;;;19.90;;
50301;SDS011;36550;50.472;19.744;2024-02-26T05:52:21;47.70;;;20.30;;
50301;SDS011;36550;50.472;19.744;2024-02-26T05:55:05;41.20;;;18.10;;
50301;SDS011;36550;50.472;19.744;2024-02-26T05:57:50;59.70;;;23.40;;
50301;SDS011;36550;50.472;19.744;2024-02-26T06:00:34;67.10;;;23.40;;
50301;SDS011;36550;50.472;19.744;2024-02-26T06:03:19;58.20;;;22.10;;
50301;SDS011;36550;50.472;19.744;2024-02-26T06:06:03;62.60;;;22.60;;
50301;SDS011;36550;50.472;19.744;2024-02-26T06:08:47;50.60;;;22.30;;
50301;SDS011;36550;50.472;19.744;2024-02-26T06:11:32;67.80;;;26.20;;
50301;SDS011;36550;50.472;19.744;2024-02-26T06:14:16;68.70;;;27.50;;
50301;SDS011;36550;50.472;19.744;2024-02-26T06:17:02;59.70;;;26.10;;
50301;SDS011;36550;50.472;19.744;2024-02-26T06:19:46;63.50;;;24.00;;
50301;SDS011;36550;50.472;19.744;2024-02-26T06:22:30;66.50;;;26.00;;
50301;SDS011;36550;50.472;19.744;2024-02-26T06:25:14;84.80;;;36.90;;
50301;SDS011;36550;50.472;19.744;2024-02-26T06:27:58;70.20;;;27.70;;
50301;SDS011;36550;50.472;19.744;2024-02-26T06:30:43;73.00;;;28.60;;
50301;SDS011;36550;50.472;19.744;2024-02-26T06:33:27;69.30;;;27.40;;
50301;SDS011;36550;50.472;19.744;2024-02-26T06:36:11;66.00;;;26.90;;
50301;SDS011;36550;50.472;19.744;2024-02-26T06:38:55;60.40;;;24.80;;
50301;SDS011;36550;50.472;19.744;2024-02-26T06:41:39;73.00;;;29.00;;
50301;SDS011;36550;50.472;19.744;2024-02-26T06:44:24;74.80;;;30.00;;
50301;SDS011;36550;50.472;19.744;2024-02-26T06:47:08;73.70;;;32.70;;
50301;SDS011;36550;50.472;19.744;2024-02-26T06:49:53;79.40;;;33.90;;
50301;SDS011;36550;50.472;19.744;2024-02-26T06:52:37;90.00;;;36.50;;
50301;SDS011;36550;50.472;19.744;2024-02-26T06:55:21;82.20;;;35.60;;
50301;SDS011;36550;50.472;19.744;2024-02-26T06:58:06;81.80;;;34.70;;
50301;SDS011;36550;50.472;19.744;2024-02-26T07:00:50;79.50;;;34.90;;
50301;SDS011;36550;50.472;19.744;2024-02-26T07:03:34;86.40;;;37.30;;
50301;SDS011;36550;50.472;19.744;2024-02-26T07:06:18;89.60;;;36.70;;
50301;SDS011;36550;50.472;19.744;2024-02-26T07:09:02;83.90;;;39.20;;
50301;SDS011;36550;50.472;19.744;2024-02-26T07:11:46;83.60;;;38.80;;
50301;SDS011;36550;50.472;19.744;2024-02-26T07:14:31;87.40;;;38.10;;
50301;SDS011;36550;50.472;19.744;2024-02-26T07:17:16;82.00;;;40.30;;
50301;SDS011;36550;50.472;19.744;2024-02-26T07:20:00;83.60;;;38.80;;
50301;SDS011;36550;50.472;19.744;2024-02-26T07:22:45;77.80;;;35.30;;
50301;SDS011;36550;50.472;19.744;2024-02-26T07:25:29;60.10;;;29.30;;
50301;SDS011;36550;50.472;19.744;2024-02-26T07:28:13;61.20;;;29.50;;
50301;SDS011;36550;50.472;19.744;2024-02-26T07:30:57;75.40;;;35.00;;
50301;SDS011;36550;50.472;19.744;2024-02-26T07:33:41;74.80;;;35.40;;
50301;SDS011;36550;50.472;19.744;2024-02-26T07:36:25;85.20;;;38.50;;
50301;SDS011;36550;50.472;19.744;2024-02-26T07:39:10;87.20;;;40.20;;
50301;SDS011;36550;50.472;19.744;2024-02-26T07:41:54;82.40;;;39.50;;
50301;SDS011;36550;50.472;19.744;2024-02-26T07:44:39;90.40;;;38.70;;
50301;SDS011;36550;50.472;19.744;2024-02-26T07:47:26;78.50;;;37.20;;
50301;SDS011;36550;50.472;19.744;2024-02-26T07:50:10;73.40;;;35.00;;
50301;SDS011;36550;50.472;19.744;2024-02-26T07:52:55;75.20;;;34.60;;
50301;SDS011;36550;50.472;19.744;2024-02-26T07:55:39;65.50;;;29.00;;
50301;SDS011;36550;50.472;19.744;2024-02-26T07:58:24;71.00;;;31.80;;
50301;SDS011;36550;50.472;19.744;2024-02-26T08:01:08;54.10;;;26.20;;
50301;SDS011;36550;50.472;19.744;2024-02-26T08:03:53;47.10;;;23.90;;
50301;SDS011;36550;50.472;19.744;2024-02-26T08:06:37;52.60;;;27.00;;
50301;SDS011;36550;50.472;19.744;2024-02-26T08:09:22;30.80;;;16.50;;
50301;SDS011;36550;50.472;19.744;2024-02-26T08:12:06;27.20;;;13.40;;
50301;SDS011;36550;50.472;19.744;2024-02-26T08:14:50;32.60;;;16.00;;
50301;SDS011;36550;50.472;19.744;2024-02-26T08:17:35;30.10;;;14.10;;
50301;SDS011;36550;50.472;19.744;2024-02-26T08:20:20;27.40;;;14.90;;
50301;SDS011;36550;50.472;19.744;2024-02-26T08:23:04;20.10;;;11.50;;
50301;SDS011;36550;50.472;19.744;2024-02-26T08:25:48;21.00;;;10.20;;
50301;SDS011;36550;50.472;19.744;2024-02-26T08:28:32;26.60;;;13.80;;
50301;SDS011;36550;50.472;19.744;2024-02-26T08:31:16;20.50;;;10.40;;
50301;SDS011;36550;50.472;19.744;2024-02-26T08:34:00;21.60;;;12.20;;
50301;SDS011;36550;50.472;19.744;2024-02-26T08:36:45;17.70;;;10.00;;
50301;SDS011;36550;50.472;19.744;2024-02-26T08:39:29;13.80;;;7.20;;
50301;SDS011;36550;50.472;19.744;2024-02-26T08:42:14;14.00;;;7.50;;
50301;SDS011;36550;50.472;19.744;2024-02-26T08:44:58;15.60;;;7.00;;
50301;SDS011;36550;50.472;19.744;2024-02-26T08:47:45;17.20;;;9.70;;
50301;SDS011;36550;50.472;19.744;2024-02-26T08:50:30;10.90;;;6.00;;
50301;SDS011;36550;50.472;19.744;2024-02-26T08:53:14;11.10;;;5.30;;
50301;SDS011;36550;50.472;19.744;2024-02-26T08:55:59;9.50;;;5.80;;
50301;SDS011;36550;50.472;19.744;2024-02-26T08:58:43;13.80;;;5.90;;
50301;SDS011;36550;50.472;19.744;2024-02-26T09:01:27;8.60;;;4.70;;
50301;SDS011;36550;50.472;19.744;2024-02-26T09:04:12;8.20;;;4.40;;
50301;SDS011;36550;50.472;19.744;2024-02-26T09:06:56;7.70;;;4.80;;
50301;SDS011;36550;50.472;19.744;2024-02-26T09:09:40;8.20;;;4.90;;
50301;SDS011;36550;50.472;19.744;2024-02-26T09:12:24;10.30;;;5.50;;
50301;SDS011;36550;50.472;19.744;2024-02-26T09:15:08;14.70;;;7.00;;
50301;SDS011;36550;50.472;19.744;2024-02-26T09:17:53;11.50;;;6.30;;
50301;SDS011;36550;50.472;19.744;2024-02-26T09:20:37;11.00;;;6.20;;
50301;SDS011;36550;50.472;19.744;2024-02-26T09:23:22;10.00;;;4.90;;
50301;SDS011;36550;50.472;19.744;2024-02-26T09:26:06;8.50;;;4.40;;
50301;SDS011;36550;50.472;19.744;2024-02-26T09:28:50;10.10;;;4.90;;
50301;SDS011;36550;50.472;19.744;2024-02-26T09:31:34;10.20;;;5.00;;
50301;SDS011;36550;50.472;19.744;2024-02-26T09:34:18;11.70;;;5.20;;
50301;SDS011;36550;50.472;19.744;2024-02-26T09:37:02;10.30;;;5.00;;
50301;SDS011;36550;50.472;19.744;2024-02-26T09:39:47;9.20;;;5.20;;
50301;SDS011;36550;50.472;19.744;2024-02-26T09:42:31;9.60;;;4.90;;
50301;SDS011;36550;50.472;19.744;2024-02-26T09:45:18;10.90;;;5.20;;
50301;SDS011;36550;50.472;19.744;2024-02-26T09:48:03;9.60;;;5.20;;
50301;SDS011;36550;50.472;19.744;2024-02-26T09:53:33;9.00;;;4.80;;
50301;SDS011;36550;50.472;19.744;2024-02-26T09:56:20;10.70;;;4.10;;
50301;SDS011;36550;50.472;19.744;2024-02-26T09:59:06;7.60;;;4.30;;
50301;SDS011;36550;50.472;19.744;2024-02-26T10:01:57;7.60;;;3.90;;
50301;SDS011;36550;50.472;19.744;2024-02-26T10:04:43;8.90;;;4.60;;
50301;SDS011;36550;50.472;19.744;2024-02-26T10:07:30;7.40;;;3.70;;
50301;SDS011;36550;50.472;19.744;2024-02-26T10:10:15;8.50;;;4.70;;
50301;SDS011;36550;50.472;19.744;2024-02-26T10:15:47;7.40;;;4.60;;
50301;SDS011;36550;50.472;19.744;2024-02-26T10:18:44;8.00;;;4.60;;
50301;SDS011;36550;50.472;19.744;2024-02-26T10:21:29;7.50;;;4.30;;
50301;SDS011;36550;50.472;19.744;2024-02-26T10:24:13;12.20;;;6.10;;
50301;SDS011;36550;50.472;19.744;2024-02-26T10:26:58;8.40;;;5.10;;
50301;SDS011;36550;50.472;19.744;2024-02-26T10:29:43;11.50;;;5.00;;
50301;SDS011;36550;50.472;19.744;2024-02-26T10:32:27;7.30;;;4.20;;
50301;SDS011;36550;50.472;19.744;2024-02-26T10:35:12;7.10;;;4.10;;
50301;SDS011;36550;50.472;19.744;2024-02-26T10:37:57;8.40;;;4.30;;
50301;SDS011;36550;50.472;19.744;2024-02-26T10:40:42;7.60;;;4.50;;
50301;SDS011;36550;50.472;19.744;2024-02-26T10:43:26;8.90;;;4.40;;
50301;SDS011;36550;50.472;19.744;2024-02-26T10:46:10;7.90;;;4.80;;
50301;SDS011;36550;50.472;19.744;2024-02-26T10:48:55;7.10;;;4.20;;
50301;SDS011;36550;50.472;19.744;2024-02-26T10:51:40;7.70;;;4.80;;
50301;SDS011;36550;50.472;19.744;2024-02-26T10:54:29;8.60;;;4.40;;
50301;SDS011;36550;50.472;19.744;2024-02-26T10:57:15;7.90;;;3.70;;
50301;SDS011;36550;50.472;19.744;2024-02-26T11:00:00;9.30;;;3.80;;
50301;SDS011;36550;50.472;19.744;2024-02-26T11:02:48;8.30;;;3.40;;
50301;SDS011;36550;50.472;19.744;2024-02-26T11:05:33;6.70;;;3.70;;
50301;SDS011;36550;50.472;19.744;2024-02-26T11:08:21;11.00;;;7.00;;
50301;SDS011;36550;50.472;19.744;2024-02-26T11:11:07;9.10;;;5.30;;
50301;SDS011;36550;50.472;19.744;2024-02-26T11:13:53;19.30;;;3.50;;
50301;SDS011;36550;50.472;19.744;2024-02-26T11:16:38;45.30;;;20.20;;
50301;SDS011;36550;50.472;19.744;2024-02-26T11:19:24;31.20;;;17.30;;
50301;SDS011;36550;50.472;19.744;2024-02-26T11:24:53;94.10;;;49.80;;
50301;SDS011;36550;50.472;19.744;2024-02-26T11:27:42;43.10;;;24.10;;
50301;SDS011;36550;50.472;19.744;2024-02-26T11:30:30;16.50;;;9.30;;
50301;SDS011;36550;50.472;19.744;2024-02-26T11:33:16;7.50;;;4.50;;
50301;SDS011;36550;50.472;19.744;2024-02-26T11:36:01;10.80;;;3.70;;
50301;SDS011;36550;50.472;19.744;2024-02-26T11:41:36;8.40;;;3.10;;
50301;SDS011;36550;50.472;19.744;2024-02-26T11:44:30;9.90;;;6.60;;
50301;SDS011;36550;50.472;19.744;2024-02-26T11:47:18;8.30;;;3.80;;
50301;SDS011;36550;50.472;19.744;2024-02-26T11:50:32;7.50;;;4.00;;
50301;SDS011;36550;50.472;19.744;2024-02-26T11:59:11;6.60;;;3.80;;
50301;SDS011;36550;50.472;19.744;2024-02-26T12:01:57;7.70;;;4.70;;
50301;SDS011;36550;50.472;19.744;2024-02-26T12:04:41;8.50;;;4.40;;
50301;SDS011;36550;50.472;19.744;2024-02-26T12:07:25;5.60;;;3.60;;
50301;SDS011;36550;50.472;19.744;2024-02-26T12:10:14;7.20;;;3.00;;
50301;SDS011;36550;50.472;19.744;2024-02-26T12:13:03;7.40;;;3.00;;
50301;SDS011;36550;50.472;19.744;2024-02-26T12:18:35;7.30;;;2.90;;
50301;SDS011;36550;50.472;19.744;2024-02-26T12:21:19;7.90;;;3.90;;
50301;SDS011;36550;50.472;19.744;2024-02-26T12:24:14;8.70;;;5.00;;
50301;SDS011;36550;50.472;19.744;2024-02-26T12:26:59;99.50;;;46.70;;
50301;SDS011;36550;50.472;19.744;2024-02-26T12:29:43;107.70;;;54.20;;
50301;SDS011;36550;50.472;19.744;2024-02-26T12:32:28;83.90;;;50.40;;
50301;SDS011;36550;50.472;19.744;2024-02-26T12:35:12;52.10;;;32.10;;
50301;SDS011;36550;50.472;19.744;2024-02-26T12:37:56;48.60;;;30.90;;
50301;SDS011;36550;50.472;19.744;2024-02-26T12:40:42;14.70;;;6.90;;
50301;SDS011;36550;50.472;19.744;2024-02-26T12:43:26;8.10;;;5.10;;
50301;SDS011;36550;50.472;19.744;2024-02-26T12:46:11;35.40;;;27.60;;
50301;SDS011;36550;50.472;19.744;2024-02-26T12:48:58;41.40;;;30.60;;
50301;SDS011;36550;50.472;19.744;2024-02-26T12:51:43;19.00;;;14.30;;
50301;SDS011;36550;50.472;19.744;2024-02-26T12:54:29;9.90;;;7.00;;
50301;SDS011;36550;50.472;19.744;2024-02-26T12:57:22;12.70;;;8.80;;
50301;SDS011;36550;50.472;19.744;2024-02-26T13:00:08;13.50;;;8.70;;
50301;SDS011;36550;50.472;19.744;2024-02-26T13:02:56;8.80;;;5.90;;
50301;SDS011;36550;50.472;19.744;2024-02-26T13:05:43;11.60;;;5.40;;
50301;SDS011;36550;50.472;19.744;2024-02-26T13:08:28;10.70;;;7.00;;
50301;SDS011;36550;50.472;19.744;2024-02-26T13:11:12;12.30;;;7.40;;
50301;SDS011;36550;50.472;19.744;2024-02-26T13:13:57;10.30;;;4.30;;
50301;SDS011;36550;50.472;19.744;2024-02-26T13:16:41;11.80;;;5.50;;
50301;SDS011;36550;50.472;19.744;2024-02-26T13:19:26;9.20;;;6.30;;
50301;SDS011;36550;50.472;19.744;2024-02-26T13:24:56;9.50;;;5.90;;
50301;SDS011;36550;50.472;19.744;2024-02-26T13:27:40;8.00;;;4.00;;
50301;SDS011;36550;50.472;19.744;2024-02-26T13:30:24;10.90;;;7.00;;
50301;SDS011;36550;50.472;19.744;2024-02-26T13:33:12;14.10;;;6.00;;
50301;SDS011;36550;50.472;19.744;2024-02-26T13:35:56;9.00;;;5.00;;
50301;SDS011;36550;50.472;19.744;2024-02-26T13:38:41;13.70;;;7.60;;
50301;SDS011;36550;50.472;19.744;2024-02-26T13:41:36;12.00;;;5.00;;
50301;SDS011;36550;50.472;19.744;2024-02-26T13:44:21;7.20;;;4.50;;
50301;SDS011;36550;50.472;19.744;2024-02-26T13:47:05;9.20;;;4.70;;
50301;SDS011;36550;50.472;19.744;2024-02-26T13:49:49;7.00;;;4.30;;
50301;SDS011;36550;50.472;19.744;2024-02-26T13:52:33;7.80;;;4.10;;
50301;SDS011;36550;50.472;19.744;2024-02-26T13:55:18;11.90;;;4.80;;
50301;SDS011;36550;50.472;19.744;2024-02-26T13:58:03;10.40;;;6.00;;
50301;SDS011;36550;50.472;19.744;2024-02-26T14:00:47;22.10;;;10.10;;
50301;SDS011;36550;50.472;19.744;2024-02-26T14:03:34;86.50;;;40.40;;
50301;SDS011;36550;50.472;19.744;2024-02-26T14:06:18;35.70;;;17.90;;
50301;SDS011;36550;50.472;19.744;2024-02-26T14:09:03;28.50;;;13.90;;
50301;SDS011;36550;50.472;19.744;2024-02-26T14:11:48;13.40;;;7.90;;
50301;SDS011;36550;50.472;19.744;2024-02-26T14:14:32;14.40;;;7.10;;
50301;SDS011;36550;50.472;19.744;2024-02-26T14:17:19;10.80;;;5.90;;
50301;SDS011;36550;50.472;19.744;2024-02-26T14:20:04;10.90;;;4.90;;
50301;SDS011;36550;50.472;19.744;2024-02-26T14:22:49;11.50;;;5.80;;
50301;SDS011;36550;50.472;19.744;2024-02-26T14:25:37;14.60;;;8.20;;
50301;SDS011;36550;50.472;19.744;2024-02-26T14:28:21;18.10;;;9.60;;
50301;SDS011;36550;50.472;19.744;2024-02-26T14:31:05;21.80;;;11.10;;
50301;SDS011;36550;50.472;19.744;2024-02-26T14:36:37;14.90;;;8.10;;
50301;SDS011;36550;50.472;19.744;2024-02-26T14:39:21;14.50;;;8.80;;
50301;SDS011;36550;50.472;19.744;2024-02-26T14:42:06;13.90;;;7.60;;
50301;SDS011;36550;50.472;19.744;2024-02-26T14:44:50;13.10;;;7.70;;
50301;SDS011;36550;50.472;19.744;2024-02-26T14:47:35;12.60;;;6.10;;
50301;SDS011;36550;50.472;19.744;2024-02-26T14:50:19;18.90;;;9.80;;
50301;SDS011;36550;50.472;19.744;2024-02-26T14:53:04;50.30;;;30.10;;
50301;SDS011;36550;50.472;19.744;2024-02-26T14:55:48;44.10;;;29.00;;
50301;SDS011;36550;50.472;19.744;2024-02-26T14:58:32;53.00;;;27.00;;
50301;SDS011;36550;50.472;19.744;2024-02-26T15:01:16;48.50;;;27.00;;
50301;SDS011;36550;50.472;19.744;2024-02-26T15:04:01;52.00;;;23.70;;
50301;SDS011;36550;50.472;19.744;2024-02-26T15:06:45;67.50;;;39.00;;
50301;SDS011;36550;50.472;19.744;2024-02-26T15:09:29;24.70;;;11.80;;
50301;SDS011;36550;50.472;19.744;2024-02-26T15:12:13;28.80;;;13.60;;
50301;SDS011;36550;50.472;19.744;2024-02-26T15:14:58;20.20;;;9.70;;
50301;SDS011;36550;50.472;19.744;2024-02-26T15:17:43;18.10;;;8.10;;
50301;SDS011;36550;50.472;19.744;2024-02-26T15:20:27;17.30;;;10.10;;
50301;SDS011;36550;50.472;19.744;2024-02-26T15:23:11;19.00;;;10.90;;
50301;SDS011;36550;50.472;19.744;2024-02-26T15:25:56;18.80;;;12.90;;
50301;SDS011;36550;50.472;19.744;2024-02-26T15:28:40;125.70;;;76.90;;
50301;SDS011;36550;50.472;19.744;2024-02-26T15:31:24;50.80;;;30.10;;
50301;SDS011;36550;50.472;19.744;2024-02-26T15:34:09;30.20;;;17.60;;
50301;SDS011;36550;50.472;19.744;2024-02-26T15:36:53;31.30;;;17.70;;
50301;SDS011;36550;50.472;19.744;2024-02-26T15:39:37;20.70;;;9.80;;
50301;SDS011;36550;50.472;19.744;2024-02-26T15:42:21;15.50;;;9.20;;
50301;SDS011;36550;50.472;19.744;2024-02-26T15:45:06;13.20;;;8.00;;
50301;SDS011;36550;50.472;19.744;2024-02-26T15:47:51;23.30;;;8.70;;
50301;SDS011;36550;50.472;19.744;2024-02-26T15:50:36;17.40;;;8.90;;
50301;SDS011;36550;50.472;19.744;2024-02-26T15:53:21;21.90;;;11.30;;
50301;SDS011;36550;50.472;19.744;2024-02-26T15:56:05;18.70;;;10.00;;
50301;SDS011;36550;50.472;19.744;2024-02-26T15:58:50;19.20;;;10.30;;
50301;SDS011;36550;50.472;19.744;2024-02-26T16:01:34;19.90;;;10.40;;
50301;SDS011;36550;50.472;19.744;2024-02-26T16:04:19;15.50;;;9.30;;
50301;SDS011;36550;50.472;19.744;2024-02-26T16:07:04;20.40;;;10.00;;
50301;SDS011;36550;50.472;19.744;2024-02-26T16:09:56;19.40;;;10.60;;
50301;SDS011;36550;50.472;19.744;2024-02-26T16:12:41;18.60;;;10.30;;
50301;SDS011;36550;50.472;19.744;2024-02-26T16:15:33;20.80;;;10.40;;
50301;SDS011;36550;50.472;19.744;2024-02-26T16:18:18;18.30;;;9.60;;
50301;SDS011;36550;50.472;19.744;2024-02-26T16:21:03;18.50;;;10.10;;
50301;SDS011;36550;50.472;19.744;2024-02-26T16:23:47;18.30;;;10.40;;